sensor_id;sensor_type;location;lat;lon;timestamp;P1;durP1;ratioP1;P2;durP2;ratioP2
12844;SDS011;68700;48.534;9.196;2024-03-08T00:00:01;28.87;;;18.60;;
12844;SDS011;68700;48.534;9.196;2024-03-08T00:03:29;29.10;;;18.53;;
12844;SDS011;68700;48.534;9.196;2024-03-08T00:06:52;27.13;;;17.80;;
12844;SDS011;68700;48.534;9.196;2024-03-08T00:10:15;28.50;;;17.97;;
12844;SDS011;68700;48.534;9.196;2024-03-08T00:13:38;27.73;;;18.33;;
12844;SDS011;68700;48.534;9.196;2024-03-08T00:17:00;30.07;;;19.30;;
12844;SDS011;68700;48.534;9.196;2024-03-08T00:20:23;27.00;;;18.23;;
12844;SDS011;68700;48.534;9.196;2024-03-08T00:23:45;29.33;;;18.77;;
12844;SDS011;68700;48.534;9.196;2024-03-08T00:27:08;26.63;;;17.73;;
12844;SDS011;68700;48.534;9.196;2024-03-08T00:30:31;27.43;;;18.57;;
12844;SDS011;68700;48.534;9.196;2024-03-08T00:33:53;27.27;;;18.07;;
12844;SDS011;68700;48.534;9.196;2024-03-08T00:37:15;25.70;;;16.80;;
12844;SDS011;68700;48.534;9.196;2024-03-08T00:40:36;26.07;;;17.23;;
12844;SDS011;68700;48.534;9.196;2024-03-08T00:44:00;24.60;;;16.30;;
12844;SDS011;68700;48.534;9.196;2024-03-08T00:47:23;25.87;;;16.70;;
12844;SDS011;68700;48.534;9.196;2024-03-08T00:50:45;24.23;;;16.33;;
12844;SDS011;68700;48.534;9.196;2024-03-08T00:54:07;25.70;;;16.13;;
12844;SDS011;68700;48.534;9.196;2024-03-08T00:57:28;28.50;;;17.40;;
12844;SDS011;68700;48.534;9.196;2024-03-08T01:00:52;25.60;;;16.87;;
12844;SDS011;68700;48.534;9.196;2024-03-08T01:04:14;23.27;;;15.67;;
12844;SDS011;68700;48.534;9.196;2024-03-08T01:07:37;26.87;;;16.93;;
12844;SDS011;68700;48.534;9.196;2024-03-08T01:10:58;24.60;;;15.83;;
12844;SDS011;68700;48.534;9.196;2024-03-08T01:14:20;25.33;;;16.17;;
12844;SDS011;68700;48.534;9.196;2024-03-08T01:17:44;26.20;;;17.33;;
12844;SDS011;68700;48.534;9.196;2024-03-08T01:21:06;27.13;;;16.93;;
12844;SDS011;68700;48.534;9.196;2024-03-08T01:24:28;28.63;;;18.50;;
12844;SDS011;68700;48.534;9.196;2024-03-08T01:27:50;26.10;;;16.87;;
12844;SDS011;68700;48.534;9.196;2024-03-08T01:31:13;28.30;;;17.20;;
12844;SDS011;68700;48.534;9.196;2024-03-08T01:34:37;25.80;;;16.67;;
12844;SDS011;68700;48.534;9.196;2024-03-08T01:37:59;25.13;;;17.17;;
12844;SDS011;68700;48.534;9.196;2024-03-08T01:41:20;22.50;;;16.47;;
12844;SDS011;68700;48.534;9.196;2024-03-08T01:44:43;24.33;;;17.07;;
12844;SDS011;68700;48.534;9.196;2024-03-08T01:48:05;27.00;;;17.13;;
12844;SDS011;68700;48.534;9.196;2024-03-08T01:51:28;25.83;;;16.30;;
12844;SDS011;68700;48.534;9.196;2024-03-08T01:54:51;27.33;;;17.43;;
12844;SDS011;68700;48.534;9.196;2024-03-08T01:58:13;26.27;;;16.10;;
12844;SDS011;68700;48.534;9.196;2024-03-08T02:01:35;25.30;;;15.70;;
12844;SDS011;68700;48.534;9.196;2024-03-08T02:04:58;23.27;;;15.87;;
12844;SDS011;68700;48.534;9.196;2024-03-08T02:08:22;20.60;;;13.93;;
12844;SDS011;68700;48.534;9.196;2024-03-08T02:11:44;23.57;;;15.50;;
12844;SDS011;68700;48.534;9.196;2024-03-08T02:15:07;24.37;;;15.03;;
12844;SDS011;68700;48.534;9.196;2024-03-08T02:18:30;23.70;;;14.67;;
12844;SDS011;68700;48.534;9.196;2024-03-08T02:21:56;23.07;;;15.17;;
12844;SDS011;68700;48.534;9.196;2024-03-08T02:25:19;27.63;;;15.53;;
12844;SDS011;68700;48.534;9.196;2024-03-08T02:28:41;24.03;;;15.13;;
12844;SDS011;68700;48.534;9.196;2024-03-08T02:32:04;24.23;;;15.67;;
12844;SDS011;68700;48.534;9.196;2024-03-08T02:35:26;22.37;;;15.80;;
12844;SDS011;68700;48.534;9.196;2024-03-08T02:38:49;26.57;;;16.33;;
12844;SDS011;68700;48.534;9.196;2024-03-08T02:42:11;25.73;;;14.47;;
12844;SDS011;68700;48.534;9.196;2024-03-08T02:45:33;24.53;;;15.53;;
12844;SDS011;68700;48.534;9.196;2024-03-08T02:48:55;23.10;;;15.03;;
12844;SDS011;68700;48.534;9.196;2024-03-08T02:52:16;24.17;;;15.87;;
12844;SDS011;68700;48.534;9.196;2024-03-08T02:55:42;24.93;;;15.33;;
12844;SDS011;68700;48.534;9.196;2024-03-08T02:59:04;24.73;;;15.13;;
12844;SDS011;68700;48.534;9.196;2024-03-08T03:02:26;25.53;;;16.03;;
12844;SDS011;68700;48.534;9.196;2024-03-08T03:05:47;25.83;;;14.77;;
12844;SDS011;68700;48.534;9.196;2024-03-08T03:09:10;23.17;;;14.80;;
12844;SDS011;68700;48.534;9.196;2024-03-08T03:12:33;24.17;;;15.37;;
12844;SDS011;68700;48.534;9.196;2024-03-08T03:15:54;23.00;;;14.63;;
12844;SDS011;68700;48.534;9.196;2024-03-08T03:19:18;21.93;;;13.73;;
12844;SDS011;68700;48.534;9.196;2024-03-08T03:22:40;24.73;;;15.90;;
12844;SDS011;68700;48.534;9.196;2024-03-08T03:26:02;22.83;;;15.00;;
12844;SDS011;68700;48.534;9.196;2024-03-08T03:29:28;23.53;;;15.13;;
12844;SDS011;68700;48.534;9.196;2024-03-08T03:32:50;25.13;;;15.43;;
12844;SDS011;68700;48.534;9.196;2024-03-08T03:36:12;24.80;;;15.70;;
12844;SDS011;68700;48.534;9.196;2024-03-08T03:39:34;25.87;;;15.50;;
12844;SDS011;68700;48.534;9.196;2024-03-08T03:43:04;22.23;;;14.30;;
12844;SDS011;68700;48.534;9.196;2024-03-08T03:46:28;22.83;;;14.47;;
12844;SDS011;68700;48.534;9.196;2024-03-08T03:49:50;23.13;;;14.60;;
12844;SDS011;68700;48.534;9.196;2024-03-08T03:53:13;25.37;;;15.40;;
12844;SDS011;68700;48.534;9.196;2024-03-08T03:56:35;25.37;;;15.53;;
12844;SDS011;68700;48.534;9.196;2024-03-08T03:59:57;22.53;;;14.10;;
12844;SDS011;68700;48.534;9.196;2024-03-08T04:03:20;23.83;;;14.97;;
12844;SDS011;68700;48.534;9.196;2024-03-08T04:06:42;23.90;;;15.40;;
12844;SDS011;68700;48.534;9.196;2024-03-08T04:10:04;25.13;;;15.27;;
12844;SDS011;68700;48.534;9.196;2024-03-08T04:13:28;22.40;;;13.87;;
12844;SDS011;68700;48.534;9.196;2024-03-08T04:16:50;26.90;;;15.43;;
12844;SDS011;68700;48.534;9.196;2024-03-08T04:20:14;27.93;;;16.87;;
12844;SDS011;68700;48.534;9.196;2024-03-08T04:23:37;24.13;;;15.03;;
12844;SDS011;68700;48.534;9.196;2024-03-08T04:26:59;23.47;;;15.03;;
12844;SDS011;68700;48.534;9.196;2024-03-08T04:30:21;23.03;;;14.30;;
12844;SDS011;68700;48.534;9.196;2024-03-08T04:33:44;22.57;;;14.20;;
12844;SDS011;68700;48.534;9.196;2024-03-08T04:37:07;27.37;;;15.77;;
12844;SDS011;68700;48.534;9.196;2024-03-08T04:40:31;25.27;;;15.53;;
12844;SDS011;68700;48.534;9.196;2024-03-08T04:43:52;24.40;;;14.80;;
12844;SDS011;68700;48.534;9.196;2024-03-08T04:47:17;23.00;;;14.80;;
12844;SDS011;68700;48.534;9.196;2024-03-08T04:50:40;25.40;;;14.47;;
12844;SDS011;68700;48.534;9.196;2024-03-08T04:54:03;26.60;;;15.17;;
12844;SDS011;68700;48.534;9.196;2024-03-08T04:57:25;27.20;;;16.17;;
12844;SDS011;68700;48.534;9.196;2024-03-08T05:00:47;27.13;;;16.07;;
12844;SDS011;68700;48.534;9.196;2024-03-08T05:04:10;26.70;;;16.07;;
12844;SDS011;68700;48.534;9.196;2024-03-08T05:07:32;21.43;;;14.47;;
12844;SDS011;68700;48.534;9.196;2024-03-08T05:10:57;25.20;;;15.97;;
12844;SDS011;68700;48.534;9.196;2024-03-08T05:14:22;24.60;;;15.47;;
12844;SDS011;68700;48.534;9.196;2024-03-08T05:17:45;24.70;;;15.23;;
12844;SDS011;68700;48.534;9.196;2024-03-08T05:21:06;25.50;;;15.97;;
12844;SDS011;68700;48.534;9.196;2024-03-08T05:24:40;27.20;;;16.37;;
12844;SDS011;68700;48.534;9.196;2024-03-08T05:31:59;30.80;;;17.20;;
12844;SDS011;68700;48.534;9.196;2024-03-08T05:35:22;27.87;;;17.37;;
12844;SDS011;68700;48.534;9.196;2024-03-08T05:38:44;26.93;;;16.13;;
12844;SDS011;68700;48.534;9.196;2024-03-08T05:42:06;30.33;;;18.50;;
12844;SDS011;68700;48.534;9.196;2024-03-08T05:45:30;25.47;;;16.40;;
12844;SDS011;68700;48.534;9.196;2024-03-08T05:48:52;27.40;;;16.90;;
12844;SDS011;68700;48.534;9.196;2024-03-08T05:52:14;30.80;;;18.37;;
12844;SDS011;68700;48.534;9.196;2024-03-08T05:55:36;30.30;;;17.43;;
12844;SDS011;68700;48.534;9.196;2024-03-08T05:58:58;30.77;;;18.53;;
12844;SDS011;68700;48.534;9.196;2024-03-08T06:02:21;31.87;;;18.10;;
12844;SDS011;68700;48.534;9.196;2024-03-08T06:05:43;28.47;;;18.13;;
12844;SDS011;68700;48.534;9.196;2024-03-08T06:09:05;31.90;;;18.13;;
12844;SDS011;68700;48.534;9.196;2024-03-08T06:12:31;32.17;;;18.97;;
12844;SDS011;68700;48.534;9.196;2024-03-08T06:15:58;26.93;;;17.33;;
12844;SDS011;68700;48.534;9.196;2024-03-08T06:19:22;30.73;;;18.90;;
12844;SDS011;68700;48.534;9.196;2024-03-08T06:22:44;30.87;;;18.67;;
12844;SDS011;68700;48.534;9.196;2024-03-08T06:26:05;33.60;;;19.17;;
12844;SDS011;68700;48.534;9.196;2024-03-08T06:29:27;32.40;;;19.30;;
12844;SDS011;68700;48.534;9.196;2024-03-08T06:32:49;35.70;;;20.17;;
12844;SDS011;68700;48.534;9.196;2024-03-08T06:36:13;33.90;;;20.67;;
12844;SDS011;68700;48.534;9.196;2024-03-08T06:39:38;36.63;;;20.80;;
12844;SDS011;68700;48.534;9.196;2024-03-08T06:43:00;35.77;;;19.93;;
12844;SDS011;68700;48.534;9.196;2024-03-08T06:46:25;37.03;;;21.37;;
12844;SDS011;68700;48.534;9.196;2024-03-08T06:49:48;37.70;;;21.80;;
12844;SDS011;68700;48.534;9.196;2024-03-08T06:53:11;39.43;;;22.50;;
12844;SDS011;68700;48.534;9.196;2024-03-08T06:56:33;41.67;;;23.23;;
12844;SDS011;68700;48.534;9.196;2024-03-08T06:59:55;36.77;;;22.20;;
12844;SDS011;68700;48.534;9.196;2024-03-08T07:03:17;36.33;;;21.63;;
12844;SDS011;68700;48.534;9.196;2024-03-08T07:06:39;42.10;;;22.20;;
12844;SDS011;68700;48.534;9.196;2024-03-08T07:10:03;37.67;;;21.67;;
12844;SDS011;68700;48.534;9.196;2024-03-08T07:13:25;34.93;;;21.17;;
12844;SDS011;68700;48.534;9.196;2024-03-08T07:16:48;40.40;;;22.57;;
12844;SDS011;68700;48.534;9.196;2024-03-08T07:20:10;41.47;;;23.40;;
12844;SDS011;68700;48.534;9.196;2024-03-08T07:23:33;38.73;;;23.33;;
12844;SDS011;68700;48.534;9.196;2024-03-08T07:27:15;41.97;;;22.77;;
12844;SDS011;68700;48.534;9.196;2024-03-08T07:30:38;35.63;;;22.03;;
12844;SDS011;68700;48.534;9.196;2024-03-08T07:34:28;32.57;;;21.00;;
12844;SDS011;68700;48.534;9.196;2024-03-08T07:37:52;34.07;;;21.67;;
12844;SDS011;68700;48.534;9.196;2024-03-08T07:41:15;35.23;;;22.80;;
12844;SDS011;68700;48.534;9.196;2024-03-08T07:44:39;33.33;;;20.97;;
12844;SDS011;68700;48.534;9.196;2024-03-08T07:48:01;32.97;;;20.73;;
12844;SDS011;68700;48.534;9.196;2024-03-08T07:51:23;40.17;;;28.43;;
12844;SDS011;68700;48.534;9.196;2024-03-08T07:54:44;35.80;;;23.33;;
12844;SDS011;68700;48.534;9.196;2024-03-08T07:58:06;30.17;;;21.23;;
12844;SDS011;68700;48.534;9.196;2024-03-08T08:01:32;28.27;;;17.77;;
12844;SDS011;68700;48.534;9.196;2024-03-08T08:04:54;27.70;;;19.27;;
12844;SDS011;68700;48.534;9.196;2024-03-08T08:08:19;27.37;;;18.10;;
12844;SDS011;68700;48.534;9.196;2024-03-08T08:11:40;112.50;;;88.93;;
12844;SDS011;68700;48.534;9.196;2024-03-08T08:15:04;31.83;;;19.67;;
12844;SDS011;68700;48.534;9.196;2024-03-08T08:18:28;23.23;;;16.20;;
12844;SDS011;68700;48.534;9.196;2024-03-08T08:21:50;20.80;;;14.40;;
12844;SDS011;68700;48.534;9.196;2024-03-08T08:25:12;25.73;;;15.57;;
12844;SDS011;68700;48.534;9.196;2024-03-08T08:28:35;20.93;;;14.77;;
12844;SDS011;68700;48.534;9.196;2024-03-08T08:31:58;20.33;;;13.87;;
12844;SDS011;68700;48.534;9.196;2024-03-08T08:35:21;17.50;;;12.93;;
12844;SDS011;68700;48.534;9.196;2024-03-08T08:38:44;20.17;;;13.13;;
12844;SDS011;68700;48.534;9.196;2024-03-08T08:42:06;19.93;;;13.80;;
12844;SDS011;68700;48.534;9.196;2024-03-08T08:45:29;18.53;;;13.10;;
12844;SDS011;68700;48.534;9.196;2024-03-08T08:48:51;18.70;;;13.70;;
12844;SDS011;68700;48.534;9.196;2024-03-08T08:52:14;19.47;;;12.70;;
12844;SDS011;68700;48.534;9.196;2024-03-08T08:55:36;17.23;;;12.73;;
12844;SDS011;68700;48.534;9.196;2024-03-08T08:59:00;21.27;;;14.07;;
12844;SDS011;68700;48.534;9.196;2024-03-08T09:02:23;19.57;;;13.73;;
12844;SDS011;68700;48.534;9.196;2024-03-08T09:05:45;18.17;;;12.87;;
12844;SDS011;68700;48.534;9.196;2024-03-08T09:09:09;19.07;;;12.17;;
12844;SDS011;68700;48.534;9.196;2024-03-08T09:12:31;17.47;;;12.30;;
12844;SDS011;68700;48.534;9.196;2024-03-08T09:15:53;16.17;;;12.67;;
12844;SDS011;68700;48.534;9.196;2024-03-08T09:19:15;18.47;;;13.73;;
12844;SDS011;68700;48.534;9.196;2024-03-08T09:22:37;16.83;;;11.80;;
12844;SDS011;68700;48.534;9.196;2024-03-08T09:26:01;18.27;;;12.80;;
12844;SDS011;68700;48.534;9.196;2024-03-08T09:29:24;20.20;;;13.07;;
12844;SDS011;68700;48.534;9.196;2024-03-08T09:32:48;16.63;;;12.67;;
12844;SDS011;68700;48.534;9.196;2024-03-08T09:36:11;18.00;;;12.83;;
12844;SDS011;68700;48.534;9.196;2024-03-08T09:39:34;16.40;;;12.13;;
12844;SDS011;68700;48.534;9.196;2024-03-08T09:42:57;18.17;;;12.70;;
12844;SDS011;68700;48.534;9.196;2024-03-08T09:46:19;19.17;;;13.40;;
12844;SDS011;68700;48.534;9.196;2024-03-08T09:49:42;18.43;;;13.10;;
12844;SDS011;68700;48.534;9.196;2024-03-08T09:53:04;17.10;;;12.77;;
12844;SDS011;68700;48.534;9.196;2024-03-08T09:56:28;18.37;;;13.60;;
12844;SDS011;68700;48.534;9.196;2024-03-08T09:59:51;17.10;;;12.17;;
12844;SDS011;68700;48.534;9.196;2024-03-08T10:03:13;15.13;;;11.77;;
12844;SDS011;68700;48.534;9.196;2024-03-08T10:06:35;16.17;;;12.83;;
12844;SDS011;68700;48.534;9.196;2024-03-08T10:09:57;14.43;;;10.73;;
12844;SDS011;68700;48.534;9.196;2024-03-08T10:13:19;13.50;;;10.77;;
12844;SDS011;68700;48.534;9.196;2024-03-08T10:16:43;12.77;;;10.60;;
12844;SDS011;68700;48.534;9.196;2024-03-08T10:20:12;16.57;;;11.97;;
12844;SDS011;68700;48.534;9.196;2024-03-08T10:23:35;12.63;;;10.57;;
12844;SDS011;68700;48.534;9.196;2024-03-08T10:26:58;14.33;;;11.67;;
12844;SDS011;68700;48.534;9.196;2024-03-08T10:30:22;14.37;;;11.50;;
12844;SDS011;68700;48.534;9.196;2024-03-08T10:33:45;16.03;;;12.57;;
12844;SDS011;68700;48.534;9.196;2024-03-08T10:37:07;15.33;;;11.67;;
12844;SDS011;68700;48.534;9.196;2024-03-08T10:40:37;14.07;;;11.33;;
12844;SDS011;68700;48.534;9.196;2024-03-08T10:44:10;13.53;;;11.20;;
12844;SDS011;68700;48.534;9.196;2024-03-08T10:47:37;14.57;;;11.37;;
12844;SDS011;68700;48.534;9.196;2024-03-08T10:51:04;13.97;;;11.97;;
12844;SDS011;68700;48.534;9.196;2024-03-08T10:54:27;14.20;;;11.17;;
12844;SDS011;68700;48.534;9.196;2024-03-08T10:57:52;13.63;;;11.90;;
12844;SDS011;68700;48.534;9.196;2024-03-08T11:01:14;14.43;;;12.50;;
12844;SDS011;68700;48.534;9.196;2024-03-08T11:04:36;16.23;;;12.40;;
12844;SDS011;68700;48.534;9.196;2024-03-08T11:08:00;14.07;;;11.90;;
12844;SDS011;68700;48.534;9.196;2024-03-08T11:11:25;15.13;;;12.27;;
12844;SDS011;68700;48.534;9.196;2024-03-08T11:14:50;15.30;;;12.70;;
12844;SDS011;68700;48.534;9.196;2024-03-08T11:18:13;15.83;;;12.33;;
12844;SDS011;68700;48.534;9.196;2024-03-08T11:21:35;15.27;;;11.80;;
12844;SDS011;68700;48.534;9.196;2024-03-08T11:25:01;14.03;;;11.77;;
12844;SDS011;68700;48.534;9.196;2024-03-08T11:28:28;16.03;;;12.80;;
12844;SDS011;68700;48.534;9.196;2024-03-08T11:31:53;18.10;;;12.30;;
12844;SDS011;68700;48.534;9.196;2024-03-08T11:35:25;14.70;;;12.37;;
12844;SDS011;68700;48.534;9.196;2024-03-08T11:38:47;17.20;;;13.20;;
12844;SDS011;68700;48.534;9.196;2024-03-08T11:42:11;16.70;;;12.70;;
12844;SDS011;68700;48.534;9.196;2024-03-08T11:45:33;14.43;;;12.53;;
12844;SDS011;68700;48.534;9.196;2024-03-08T11:48:56;15.17;;;12.53;;
12844;SDS011;68700;48.534;9.196;2024-03-08T11:52:18;14.10;;;12.30;;
12844;SDS011;68700;48.534;9.196;2024-03-08T11:55:40;14.97;;;12.83;;
12844;SDS011;68700;48.534;9.196;2024-03-08T11:59:03;16.60;;;13.53;;
12844;SDS011;68700;48.534;9.196;2024-03-08T12:02:25;14.67;;;12.30;;
12844;SDS011;68700;48.534;9.196;2024-03-08T12:05:52;14.47;;;12.97;;
12844;SDS011;68700;48.534;9.196;2024-03-08T12:09:19;13.93;;;12.03;;
12844;SDS011;68700;48.534;9.196;2024-03-08T12:12:42;14.93;;;12.07;;
12844;SDS011;68700;48.534;9.196;2024-03-08T12:16:06;13.30;;;11.40;;
12844;SDS011;68700;48.534;9.196;2024-03-08T12:19:28;15.43;;;12.17;;
12844;SDS011;68700;48.534;9.196;2024-03-08T12:22:50;14.90;;;12.93;;
12844;SDS011;68700;48.534;9.196;2024-03-08T12:26:13;14.10;;;12.60;;
12844;SDS011;68700;48.534;9.196;2024-03-08T12:29:37;15.60;;;12.90;;
12844;SDS011;68700;48.534;9.196;2024-03-08T12:33:01;14.33;;;12.83;;
12844;SDS011;68700;48.534;9.196;2024-03-08T12:36:24;14.10;;;12.57;;
12844;SDS011;68700;48.534;9.196;2024-03-08T12:39:55;13.43;;;11.93;;
12844;SDS011;68700;48.534;9.196;2024-03-08T12:43:18;13.17;;;11.77;;
12844;SDS011;68700;48.534;9.196;2024-03-08T12:46:40;14.83;;;13.10;;
12844;SDS011;68700;48.534;9.196;2024-03-08T12:50:06;13.30;;;11.90;;
12844;SDS011;68700;48.534;9.196;2024-03-08T12:53:29;15.00;;;12.67;;
12844;SDS011;68700;48.534;9.196;2024-03-08T12:56:50;14.20;;;12.70;;
12844;SDS011;68700;48.534;9.196;2024-03-08T13:00:14;14.27;;;12.30;;
12844;SDS011;68700;48.534;9.196;2024-03-08T13:03:39;14.63;;;12.70;;
12844;SDS011;68700;48.534;9.196;2024-03-08T13:07:02;13.47;;;11.50;;
12844;SDS011;68700;48.534;9.196;2024-03-08T13:10:24;14.67;;;12.10;;
12844;SDS011;68700;48.534;9.196;2024-03-08T13:13:46;14.83;;;12.63;;
12844;SDS011;68700;48.534;9.196;2024-03-08T13:17:08;14.37;;;12.23;;
12844;SDS011;68700;48.534;9.196;2024-03-08T13:20:38;14.57;;;12.47;;
12844;SDS011;68700;48.534;9.196;2024-03-08T13:24:10;13.67;;;12.27;;
12844;SDS011;68700;48.534;9.196;2024-03-08T13:27:34;14.33;;;12.73;;
12844;SDS011;68700;48.534;9.196;2024-03-08T13:30:56;14.27;;;11.40;;
12844;SDS011;68700;48.534;9.196;2024-03-08T13:34:19;12.77;;;11.47;;
12844;SDS011;68700;48.534;9.196;2024-03-08T13:37:47;14.07;;;12.53;;
12844;SDS011;68700;48.534;9.196;2024-03-08T13:41:11;12.87;;;11.47;;
12844;SDS011;68700;48.534;9.196;2024-03-08T13:44:34;14.00;;;12.13;;
12844;SDS011;68700;48.534;9.196;2024-03-08T13:47:57;13.07;;;11.60;;
12844;SDS011;68700;48.534;9.196;2024-03-08T13:51:19;12.77;;;11.20;;
12844;SDS011;68700;48.534;9.196;2024-03-08T13:54:42;12.97;;;11.67;;
12844;SDS011;68700;48.534;9.196;2024-03-08T13:58:05;13.80;;;11.47;;
12844;SDS011;68700;48.534;9.196;2024-03-08T14:01:29;12.80;;;11.30;;
12844;SDS011;68700;48.534;9.196;2024-03-08T14:04:51;12.47;;;9.87;;
12844;SDS011;68700;48.534;9.196;2024-03-08T14:08:13;12.40;;;10.27;;
12844;SDS011;68700;48.534;9.196;2024-03-08T14:11:36;14.13;;;11.33;;
12844;SDS011;68700;48.534;9.196;2024-03-08T14:14:59;11.53;;;10.20;;
12844;SDS011;68700;48.534;9.196;2024-03-08T14:18:21;12.00;;;10.70;;
12844;SDS011;68700;48.534;9.196;2024-03-08T14:21:43;15.10;;;11.60;;
12844;SDS011;68700;48.534;9.196;2024-03-08T14:25:05;15.03;;;12.63;;
12844;SDS011;68700;48.534;9.196;2024-03-08T14:28:36;14.10;;;12.60;;
12844;SDS011;68700;48.534;9.196;2024-03-08T14:32:00;13.90;;;12.40;;
12844;SDS011;68700;48.534;9.196;2024-03-08T14:35:23;15.07;;;12.13;;
12844;SDS011;68700;48.534;9.196;2024-03-08T14:38:45;16.80;;;13.20;;
12844;SDS011;68700;48.534;9.196;2024-03-08T14:42:07;15.63;;;12.43;;
12844;SDS011;68700;48.534;9.196;2024-03-08T14:45:33;14.50;;;12.67;;
12844;SDS011;68700;48.534;9.196;2024-03-08T14:48:56;16.10;;;12.33;;
12844;SDS011;68700;48.534;9.196;2024-03-08T14:52:18;14.07;;;11.53;;
12844;SDS011;68700;48.534;9.196;2024-03-08T14:55:49;13.67;;;12.27;;
12844;SDS011;68700;48.534;9.196;2024-03-08T14:59:10;14.77;;;11.60;;
12844;SDS011;68700;48.534;9.196;2024-03-08T15:02:33;17.03;;;12.43;;
12844;SDS011;68700;48.534;9.196;2024-03-08T15:05:58;13.80;;;11.57;;
12844;SDS011;68700;48.534;9.196;2024-03-08T15:09:20;16.13;;;12.73;;
12844;SDS011;68700;48.534;9.196;2024-03-08T15:12:43;14.73;;;11.80;;
12844;SDS011;68700;48.534;9.196;2024-03-08T15:16:07;14.53;;;12.03;;
12844;SDS011;68700;48.534;9.196;2024-03-08T15:19:35;13.93;;;11.83;;
12844;SDS011;68700;48.534;9.196;2024-03-08T15:23:00;14.03;;;11.50;;
12844;SDS011;68700;48.534;9.196;2024-03-08T15:26:24;15.47;;;12.13;;
12844;SDS011;68700;48.534;9.196;2024-03-08T15:29:46;15.13;;;11.77;;
12844;SDS011;68700;48.534;9.196;2024-03-08T15:33:12;14.57;;;12.13;;
12844;SDS011;68700;48.534;9.196;2024-03-08T15:36:35;14.70;;;12.03;;
12844;SDS011;68700;48.534;9.196;2024-03-08T15:39:58;15.17;;;12.03;;
12844;SDS011;68700;48.534;9.196;2024-03-08T15:43:20;15.87;;;12.60;;
12844;SDS011;68700;48.534;9.196;2024-03-08T15:46:42;15.70;;;12.40;;
12844;SDS011;68700;48.534;9.196;2024-03-08T15:50:04;16.43;;;12.93;;
12844;SDS011;68700;48.534;9.196;2024-03-08T15:53:32;18.40;;;12.80;;
12844;SDS011;68700;48.534;9.196;2024-03-08T15:56:56;18.00;;;13.07;;
12844;SDS011;68700;48.534;9.196;2024-03-08T16:00:18;16.53;;;13.57;;
12844;SDS011;68700;48.534;9.196;2024-03-08T16:03:53;18.57;;;14.27;;
12844;SDS011;68700;48.534;9.196;2024-03-08T16:07:18;18.27;;;13.83;;
12844;SDS011;68700;48.534;9.196;2024-03-08T16:10:40;18.90;;;14.90;;
12844;SDS011;68700;48.534;9.196;2024-03-08T16:14:06;20.13;;;15.10;;
12844;SDS011;68700;48.534;9.196;2024-03-08T16:17:31;18.80;;;14.93;;
12844;SDS011;68700;48.534;9.196;2024-03-08T16:20:53;19.07;;;14.67;;
12844;SDS011;68700;48.534;9.196;2024-03-08T16:24:15;22.83;;;15.83;;
12844;SDS011;68700;48.534;9.196;2024-03-08T16:27:39;22.00;;;15.23;;
12844;SDS011;68700;48.534;9.196;2024-03-08T16:31:02;17.30;;;14.10;;
12844;SDS011;68700;48.534;9.196;2024-03-08T16:34:25;18.53;;;14.13;;
12844;SDS011;68700;48.534;9.196;2024-03-08T16:37:47;18.97;;;14.47;;
12844;SDS011;68700;48.534;9.196;2024-03-08T16:41:11;20.17;;;14.90;;
12844;SDS011;68700;48.534;9.196;2024-03-08T16:44:33;19.23;;;14.93;;
12844;SDS011;68700;48.534;9.196;2024-03-08T16:47:56;22.47;;;16.07;;
12844;SDS011;68700;48.534;9.196;2024-03-08T16:51:18;23.47;;;16.33;;
12844;SDS011;68700;48.534;9.196;2024-03-08T16:54:40;22.90;;;15.87;;
12844;SDS011;68700;48.534;9.196;2024-03-08T16:58:02;23.00;;;16.93;;
12844;SDS011;68700;48.534;9.196;2024-03-08T17:01:24;21.40;;;15.63;;
12844;SDS011;68700;48.534;9.196;2024-03-08T17:04:50;22.17;;;15.73;;
12844;SDS011;68700;48.534;9.196;2024-03-08T17:08:12;23.77;;;16.27;;
12844;SDS011;68700;48.534;9.196;2024-03-08T17:11:35;25.63;;;16.73;;
12844;SDS011;68700;48.534;9.196;2024-03-08T17:14:57;24.80;;;16.00;;
12844;SDS011;68700;48.534;9.196;2024-03-08T17:18:19;24.77;;;16.20;;
12844;SDS011;68700;48.534;9.196;2024-03-08T17:21:44;22.98;;;17.15;;
12844;SDS011;68700;48.534;9.196;2024-03-08T17:25:06;20.43;;;15.03;;
12844;SDS011;68700;48.534;9.196;2024-03-08T17:28:33;20.30;;;15.03;;
12844;SDS011;68700;48.534;9.196;2024-03-08T17:31:57;25.97;;;19.30;;
12844;SDS011;68700;48.534;9.196;2024-03-08T17:35:19;20.40;;;14.90;;
12844;SDS011;68700;48.534;9.196;2024-03-08T17:38:43;20.50;;;14.17;;
12844;SDS011;68700;48.534;9.196;2024-03-08T17:42:06;21.43;;;14.10;;
12844;SDS011;68700;48.534;9.196;2024-03-08T17:45:28;17.93;;;12.30;;
12844;SDS011;68700;48.534;9.196;2024-03-08T17:48:52;19.07;;;13.73;;
12844;SDS011;68700;48.534;9.196;2024-03-08T17:52:14;20.27;;;14.07;;
12844;SDS011;68700;48.534;9.196;2024-03-08T17:55:37;23.30;;;14.90;;
12844;SDS011;68700;48.534;9.196;2024-03-08T17:59:01;22.87;;;14.60;;
12844;SDS011;68700;48.534;9.196;2024-03-08T18:02:27;24.17;;;14.70;;
12844;SDS011;68700;48.534;9.196;2024-03-08T18:05:49;22.70;;;14.63;;
12844;SDS011;68700;48.534;9.196;2024-03-08T18:09:11;23.30;;;13.33;;
12844;SDS011;68700;48.534;9.196;2024-03-08T18:12:34;30.07;;;16.73;;
12844;SDS011;68700;48.534;9.196;2024-03-08T18:15:56;35.27;;;19.10;;
12844;SDS011;68700;48.534;9.196;2024-03-08T18:19:18;19.00;;;13.57;;
12844;SDS011;68700;48.534;9.196;2024-03-08T18:22:40;18.73;;;12.90;;
12844;SDS011;68700;48.534;9.196;2024-03-08T18:26:04;18.80;;;12.67;;
12844;SDS011;68700;48.534;9.196;2024-03-08T18:29:28;17.10;;;11.97;;
12844;SDS011;68700;48.534;9.196;2024-03-08T18:32:50;15.87;;;11.23;;
12844;SDS011;68700;48.534;9.196;2024-03-08T18:36:12;18.70;;;11.00;;
12844;SDS011;68700;48.534;9.196;2024-03-08T18:39:35;17.60;;;12.13;;
12844;SDS011;68700;48.534;9.196;2024-03-08T18:42:57;17.43;;;12.33;;
12844;SDS011;68700;48.534;9.196;2024-03-08T18:46:21;17.23;;;11.77;;
12844;SDS011;68700;48.534;9.196;2024-03-08T18:49:43;15.70;;;11.50;;
12844;SDS011;68700;48.534;9.196;2024-03-08T18:53:07;15.27;;;10.77;;
12844;SDS011;68700;48.534;9.196;2024-03-08T18:56:29;16.57;;;11.80;;
12844;SDS011;68700;48.534;9.196;2024-03-08T18:59:51;16.70;;;11.90;;
12844;SDS011;68700;48.534;9.196;2024-03-08T19:03:15;16.57;;;12.10;;
12844;SDS011;68700;48.534;9.196;2024-03-08T19:06:37;21.20;;;14.37;;
12844;SDS011;68700;48.534;9.196;2024-03-08T19:09:59;17.07;;;12.33;;
12844;SDS011;68700;48.534;9.196;2024-03-08T19:13:26;19.43;;;12.97;;
12844;SDS011;68700;48.534;9.196;2024-03-08T19:16:47;18.07;;;12.27;;
12844;SDS011;68700;48.534;9.196;2024-03-08T19:20:12;13.67;;;10.23;;
12844;SDS011;68700;48.534;9.196;2024-03-08T19:23:38;16.60;;;11.63;;
12844;SDS011;68700;48.534;9.196;2024-03-08T19:26:59;16.37;;;11.70;;
12844;SDS011;68700;48.534;9.196;2024-03-08T19:30:23;14.03;;;10.50;;
12844;SDS011;68700;48.534;9.196;2024-03-08T19:33:47;15.13;;;11.17;;
12844;SDS011;68700;48.534;9.196;2024-03-08T19:37:11;17.03;;;11.30;;
12844;SDS011;68700;48.534;9.196;2024-03-08T19:40:34;15.77;;;11.67;;
12844;SDS011;68700;48.534;9.196;2024-03-08T19:43:57;18.47;;;11.20;;
12844;SDS011;68700;48.534;9.196;2024-03-08T19:47:19;18.57;;;12.60;;
12844;SDS011;68700;48.534;9.196;2024-03-08T19:50:41;17.23;;;11.93;;